Propria, Brazil
Current Conditions -  °F | °C
As of 4:00 AM on Friday 24 Oct 2014 (Local Time) from SBAR Reporting Station
Scattered Clouds Scattered Clouds  
Wind Chill: 77°   Ceiling: Unl
Heat Index: 79°   Visibility: 6mi
Dew Point: 66°   Wind: 14mph
Humidity: 69%   Direction: 150°SSE
Pressure: 29.91"   Gusts: NA
Location:  10.21°S, 36.85°W
Report Text: SBAR 240700Z 15012KT 9999 SCT015 25/19 Q1013
Loading
Personal Weather Stations






























Interactive Weather Map
Tropical Storm Tracking
New forecast layout! Learn more

10-Day Weather Forecast

Advertisements
Track Severe Weather on mobile